Time;durP1;ratioP1;P1;durP2;ratioP2;P2;SDS_P1;SDS_P2;PMS_P1;PMS_P2;Temp;Humidity;BMP_temperature;BMP_pressure;BME280_temperature;BME280_humidity;BME280_pressure;Samples;Min_cycle;Max_cycle;Signal;HPM_P1;HPM_P2
2022/03/13 00:00:47;;;;;;;;;;;;;;;18.67;55.69;102190.38;4974881;28;1024;-37
2022/03/13 00:03:15;;;;;;;;;;;;;;;18.61;55.37;102185.44;4973517;28;1456;-37
2022/03/13 00:05:44;;;;;;;;;;;;;;;18.60;55.31;102180.16;4974734;28;1828;-37
2022/03/13 00:08:25;;;;;;;;;;;;;;;18.58;55.68;102188.31;4974563;28;2000;-37
2022/03/13 00:10:57;;;;;;;;;;;;;;;18.52;55.64;102180.66;4963104;28;1967;-37
2022/03/13 00:13:31;;;;;;;;;;;;;;;18.46;55.64;102176.56;4974433;28;1964;-37
2022/03/13 00:16:03;;;;;;;;;;;;;;;18.42;55.63;102176.84;4957282;28;1884;-37
2022/03/13 00:18:32;;;;;;;;;;;;;;;18.48;55.52;102173.75;4972975;28;1506;-37
2022/03/13 00:21:22;;;;;;;;;;;;;;;18.62;55.10;102157.69;4974666;28;1003;-37
2022/03/13 00:23:49;;;;;;;;;;;;;;;18.33;55.78;102166.72;4958338;28;1778;-37
2022/03/13 00:26:29;;;;;;;;;;;;;;;18.31;55.76;102157.94;4978252;28;1721;-37
2022/03/13 00:28:59;;;;;;;;;;;;;;;18.23;55.63;102153.06;4976755;28;1230;-37
2022/03/13 00:31:26;;;;;;;;;;;;;;;18.11;56.14;102162.72;4978270;28;1801;-37
2022/03/13 00:33:52;;;;;;;;;;;;;;;18.06;55.94;102160.34;4977864;28;1902;-38
2022/03/13 00:36:27;;;;;;;;;;;;;;;17.96;56.34;102174.38;4977947;28;1623;-37
2022/03/13 00:38:57;;;;;;;;;;;;;;;17.94;56.08;102154.88;4977635;28;1950;-37
2022/03/13 00:41:37;;;;;;;;;;;;;;;17.96;55.92;102147.59;4971627;28;1766;-37
2022/03/13 00:44:05;;;;;;;;;;;;;;;17.96;55.59;102151.13;4976578;28;1000;-37
2022/03/13 00:46:36;;;;;;;;;;;;;;;17.98;55.80;102154.56;4977766;28;1761;-37
2022/03/13 00:49:02;;;;;;;;;;;;;;;17.97;55.75;102146.66;4977569;28;1713;-37
2022/03/13 00:51:29;;;;;;;;;;;;;;;18.00;55.68;102154.47;4977619;28;1944;-37
2022/03/13 00:53:56;;;;;;;;;;;;;;;17.95;55.68;102140.53;4977807;28;2337;-37
2022/03/13 00:56:25;;;;;;;;;;;;;;;17.92;55.87;102136.22;4976351;28;1666;-37
2022/03/13 00:58:53;;;;;;;;;;;;;;;17.91;55.73;102141.69;4977793;28;1156;-37
2022/03/13 01:01:28;;;;;;;;;;;;;;;17.86;55.81;102123.22;4977190;28;1821;-37
2022/03/13 01:04:23;;;;;;;;;;;;;;;17.80;56.23;102139.63;4965954;28;1785;-37
2022/03/13 01:06:50;;;;;;;;;;;;;;;17.70;56.29;102136.66;4967578;28;1829;-37
2022/03/13 01:09:17;;;;;;;;;;;;;;;17.68;56.42;102134.06;4977109;28;1590;-37
2022/03/13 01:11:45;;;;;;;;;;;;;;;17.65;56.39;102123.56;4977414;28;1678;-37
2022/03/13 01:14:19;;;;;;;;;;;;;;;17.60;56.55;102130.13;4977290;28;1967;-37
2022/03/13 01:16:46;;;;;;;;;;;;;;;17.56;56.55;102120.56;4977397;28;1671;-37
2022/03/13 01:19:14;;;;;;;;;;;;;;;17.55;56.33;102125.06;4976011;28;1729;-37
2022/03/13 01:21:44;;;;;;;;;;;;;;;17.54;55.83;102127.84;4976753;28;1784;-37
2022/03/13 01:24:27;;;;;;;;;;;;;;;17.54;56.01;102122.50;4976987;28;1747;-37
2022/03/13 01:26:55;;;;;;;;;;;;;;;17.52;56.34;102116.38;4977001;28;1079;-37
2022/03/13 01:29:30;;;;;;;;;;;;;;;17.51;56.47;102112.84;4977130;28;2004;-37
2022/03/13 01:32:05;;;;;;;;;;;;;;;17.53;56.64;102118.06;4977030;28;2029;-37
2022/03/13 01:34:50;;;;;;;;;;;;;;;17.55;56.10;102109.03;4970387;28;1910;-37
2022/03/13 01:37:40;;;;;;;;;;;;;;;17.54;56.67;102109.13;4976988;28;1096;-37
2022/03/13 01:40:09;;;;;;;;;;;;;;;17.50;56.00;102109.28;4976456;28;1080;-37
2022/03/13 01:42:36;;;;;;;;;;;;;;;17.46;55.98;102107.75;4975086;28;1332;-37
2022/03/13 01:45:05;;;;;;;;;;;;;;;17.45;56.23;102105.19;4976570;28;1960;-37
2022/03/13 01:47:40;;;;;;;;;;;;;;;17.41;56.32;102109.00;4976364;28;1588;-37
2022/03/13 01:50:09;;;;;;;;;;;;;;;17.37;56.78;102107.44;4976300;28;1289;-37
2022/03/13 01:52:37;;;;;;;;;;;;;;;17.33;56.64;102096.09;4976481;28;1805;-37
2022/03/13 01:55:04;;;;;;;;;;;;;;;17.32;56.62;102094.34;4975564;28;1910;-37
2022/03/13 01:57:32;;;;;;;;;;;;;;;17.27;56.56;102102.66;4976087;28;1641;-37
2022/03/13 02:00:00;;;;;;;;;;;;;;;17.32;56.25;102099.72;4976870;28;1044;-37
2022/03/13 02:02:29;;;;;;;;;;;;;;;17.40;56.21;102097.44;4975783;28;2075;-37
2022/03/13 02:04:58;;;;;;;;;;;;;;;17.47;56.50;102093.44;4976408;28;1955;-37
2022/03/13 02:07:26;;;;;;;;;;;;;;;17.50;55.86;102103.09;4976131;28;1988;-37
2022/03/13 02:09:54;;;;;;;;;;;;;;;17.54;55.64;102101.09;4975948;28;1720;-37
2022/03/13 02:12:21;;;;;;;;;;;;;;;17.53;56.20;102094.00;4976011;28;1761;-37
2022/03/13 02:14:50;;;;;;;;;;;;;;;17.56;56.18;102100.03;4976486;28;1997;-37
2022/03/13 02:17:24;;;;;;;;;;;;;;;17.52;55.72;102086.94;4976507;28;1829;-37
2022/03/13 02:19:59;;;;;;;;;;;;;;;17.52;55.77;102094.97;4976208;28;1974;-37
2022/03/13 02:22:25;;;;;;;;;;;;;;;17.50;55.34;102098.59;4976362;28;1603;-37
2022/03/13 02:24:57;;;;;;;;;;;;;;;17.46;56.28;102088.19;4975716;28;1644;-37
2022/03/13 02:27:27;;;;;;;;;;;;;;;17.44;55.77;102087.41;4976058;28;1777;-37
2022/03/13 02:29:54;;;;;;;;;;;;;;;17.39;55.88;102094.84;4975230;28;1944;-37
2022/03/13 02:32:22;;;;;;;;;;;;;;;17.34;56.04;102097.81;4975719;28;1557;-37
2022/03/13 02:34:52;;;;;;;;;;;;;;;17.30;56.02;102097.13;4975386;28;1899;-37
2022/03/13 02:37:24;;;;;;;;;;;;;;;17.29;55.54;102089.22;4975933;28;1084;-37
2022/03/13 02:39:51;;;;;;;;;;;;;;;17.26;56.00;102094.72;4975660;28;1714;-37
2022/03/13 02:42:31;;;;;;;;;;;;;;;17.22;56.00;102086.03;4975202;28;1522;-37
2022/03/13 02:44:58;;;;;;;;;;;;;;;17.21;56.08;102092.34;4956518;28;1904;-37
2022/03/13 02:47:26;;;;;;;;;;;;;;;17.18;56.50;102102.34;4969439;28;2062;-37
2022/03/13 02:49:52;;;;;;;;;;;;;;;17.16;56.53;102105.09;4975388;28;1774;-37
2022/03/13 02:52:21;;;;;;;;;;;;;;;17.14;56.73;102080.28;4975655;28;1931;-37
2022/03/13 02:54:57;;;;;;;;;;;;;;;17.10;55.88;102092.97;4975327;28;1971;-37
2022/03/13 02:57:27;;;;;;;;;;;;;;;17.04;55.82;102101.34;4975208;28;1865;-37
2022/03/13 02:59:54;;;;;;;;;;;;;;;17.01;56.76;102095.31;4975315;28;1153;-37
2022/03/13 03:02:28;;;;;;;;;;;;;;;17.00;57.15;102094.47;5067182;23;3732;-30
2022/03/13 03:04:55;;;;;;;;;;;;;;;17.01;56.83;102106.88;4975108;28;1788;-33
2022/03/13 03:07:22;;;;;;;;;;;;;;;17.12;56.11;102114.25;4975201;28;1630;-33
2022/03/13 03:09:48;;;;;;;;;;;;;;;17.52;55.71;102103.84;4974754;28;1673;-32
2022/03/13 03:12:15;;;;;;;;;;;;;;;18.28;53.92;102100.06;4975022;28;1591;-32
2022/03/13 03:14:42;;;;;;;;;;;;;;;18.57;52.81;102095.50;4974253;28;1979;-32
2022/03/13 03:17:09;;;;;;;;;;;;;;;18.62;52.89;102108.59;4981619;28;1810;-33
2022/03/13 03:19:36;;;;;;;;;;;;;;;18.50;53.38;102091.50;4975303;28;1093;-33
2022/03/13 03:22:02;;;;;;;;;;;;;;;18.58;53.33;102086.50;4975048;28;1911;-32
2022/03/13 03:24:29;;;;;;;;;;;;;;;18.57;53.13;102097.31;4974595;28;1682;-32
2022/03/13 03:26:57;;;;;;;;;;;;;;;18.52;53.01;102086.88;4974280;28;1316;-32
2022/03/13 03:29:24;;;;;;;;;;;;;;;18.51;53.16;102093.22;4974499;28;1798;-33
2022/03/13 03:31:52;;;;;;;;;;;;;;;18.44;53.22;102090.09;4973122;28;1794;-32
2022/03/13 03:34:20;;;;;;;;;;;;;;;18.43;53.69;102091.03;4973813;28;1591;-32
2022/03/13 03:36:48;;;;;;;;;;;;;;;18.37;53.68;102085.22;4973994;28;1917;-33
2022/03/13 03:39:15;;;;;;;;;;;;;;;18.35;53.49;102090.69;4974233;28;1825;-34
2022/03/13 03:41:42;;;;;;;;;;;;;;;18.31;53.15;102099.88;4974507;28;1994;-33
2022/03/13 03:44:08;;;;;;;;;;;;;;;18.28;53.48;102092.03;4973644;28;1586;-33
2022/03/13 03:46:35;;;;;;;;;;;;;;;18.25;53.72;102092.22;4974148;28;1693;-33
2022/03/13 03:49:04;;;;;;;;;;;;;;;18.08;53.96;102088.81;4974615;28;1748;-32
2022/03/13 03:51:30;;;;;;;;;;;;;;;18.02;54.01;102088.31;4974448;28;1641;-32
2022/03/13 03:53:57;;;;;;;;;;;;;;;17.98;54.28;102090.34;4974363;28;1860;-33
2022/03/13 03:56:23;;;;;;;;;;;;;;;18.05;54.40;102086.31;4972266;28;1910;-33
2022/03/13 03:58:50;;;;;;;;;;;;;;;17.94;54.21;102085.28;4974407;28;1023;-33
2022/03/13 04:01:16;;;;;;;;;;;;;;;17.83;54.45;102089.50;4976700;28;1803;-33
2022/03/13 04:03:43;;;;;;;;;;;;;;;17.74;54.08;102095.38;4974354;28;1909;-33
2022/03/13 04:06:10;;;;;;;;;;;;;;;17.63;54.89;102093.38;4973764;28;1467;-33
2022/03/13 04:08:37;;;;;;;;;;;;;;;17.58;54.41;102094.59;4973844;28;1096;-33
2022/03/13 04:11:04;;;;;;;;;;;;;;;17.54;54.61;102104.63;4974132;28;1589;-32
2022/03/13 04:13:33;;;;;;;;;;;;;;;17.50;55.01;102095.91;4973988;28;1969;-34
2022/03/13 04:15:59;;;;;;;;;;;;;;;17.55;54.09;102100.13;4980417;28;1932;-33
2022/03/13 04:18:26;;;;;;;;;;;;;;;17.62;53.70;102101.47;4981695;28;1694;-33
2022/03/13 04:20:52;;;;;;;;;;;;;;;17.66;54.50;102095.84;4974349;28;1092;-33
2022/03/13 04:23:20;;;;;;;;;;;;;;;17.62;54.49;102102.34;4973797;28;2072;-33
2022/03/13 04:25:47;;;;;;;;;;;;;;;17.64;54.83;102099.56;4974156;28;1962;-33
2022/03/13 04:28:14;;;;;;;;;;;;;;;17.63;54.44;102100.53;4973103;28;1586;-34
2022/03/13 04:30:40;;;;;;;;;;;;;;;17.56;54.37;102099.19;4975587;28;1736;-32
2022/03/13 04:33:07;;;;;;;;;;;;;;;17.52;54.98;102100.31;4981151;28;1754;-33
2022/03/13 04:35:34;;;;;;;;;;;;;;;17.49;54.93;102102.22;4973991;28;1977;-33
2022/03/13 04:38:00;;;;;;;;;;;;;;;17.42;54.61;102097.34;4974007;28;1585;-33
2022/03/13 04:40:28;;;;;;;;;;;;;;;17.37;55.10;102108.31;4974088;28;1848;-32
2022/03/13 04:42:55;;;;;;;;;;;;;;;17.41;54.63;102109.00;4973724;28;1758;-33
2022/03/13 04:45:25;;;;;;;;;;;;;;;17.37;54.59;102111.00;4974194;28;1071;-33
2022/03/13 04:47:52;;;;;;;;;;;;;;;17.40;55.17;102112.63;4974034;28;1777;-32
2022/03/13 04:50:18;;;;;;;;;;;;;;;17.36;54.91;102103.06;4973595;28;1957;-34
2022/03/13 04:52:45;;;;;;;;;;;;;;;17.35;54.92;102104.88;4973431;28;1597;-33
2022/03/13 04:55:13;;;;;;;;;;;;;;;17.33;54.97;102121.94;4973471;28;1971;-33
2022/03/13 04:57:40;;;;;;;;;;;;;;;17.30;55.54;102120.31;4972961;28;1478;-33
2022/03/13 05:00:07;;;;;;;;;;;;;;;17.32;55.09;102113.06;4975168;28;1628;-32
2022/03/13 05:02:34;;;;;;;;;;;;;;;17.32;55.50;102105.06;4978294;28;1964;-32
2022/03/13 05:05:00;;;;;;;;;;;;;;;17.33;54.53;102117.50;4975469;28;1767;-32
2022/03/13 05:07:27;;;;;;;;;;;;;;;17.29;55.62;102118.63;4972741;28;1373;-33
2022/03/13 05:09:53;;;;;;;;;;;;;;;17.33;56.15;102105.91;4974319;28;1549;-33
2022/03/13 05:12:27;;;;;;;;;;;;;;;18.00;54.42;102096.44;4977209;28;1791;-33
2022/03/13 05:14:54;;;;;;;;;;;;;;;18.35;54.54;102117.47;4971345;28;1656;-32
2022/03/13 05:17:21;;;;;;;;;;;;;;;19.10;51.73;102113.50;4986691;28;1906;-32
2022/03/13 05:19:47;;;;;;;;;;;;;;;18.94;52.36;102117.22;4979836;28;1555;-33
2022/03/13 05:22:15;;;;;;;;;;;;;;;19.10;51.81;102108.13;4974929;28;1833;-33
2022/03/13 05:24:42;;;;;;;;;;;;;;;19.42;51.31;102112.19;4977113;28;1622;-33
2022/03/13 05:27:09;;;;;;;;;;;;;;;19.00;52.88;102124.88;4967163;28;1730;-33
2022/03/13 05:29:35;;;;;;;;;;;;;;;18.95;52.73;102115.41;4977283;28;1027;-33
2022/03/13 05:32:03;;;;;;;;;;;;;;;19.12;52.60;102116.94;4976447;28;1622;-33
2022/03/13 05:34:30;;;;;;;;;;;;;;;19.17;51.89;102120.19;4976246;28;1470;-33
2022/03/13 05:36:56;;;;;;;;;;;;;;;19.23;52.64;102125.13;4976411;28;1906;-33
2022/03/13 05:39:23;;;;;;;;;;;;;;;19.33;52.59;102126.22;4976195;28;1335;-34
2022/03/13 05:41:50;;;;;;;;;;;;;;;19.46;51.68;102129.78;4980314;28;1734;-34
2022/03/13 05:44:17;;;;;;;;;;;;;;;19.47;51.17;102122.59;4976839;28;1785;-33
2022/03/13 05:46:43;;;;;;;;;;;;;;;19.56;52.07;102115.75;4976637;28;1910;-32
2022/03/13 05:49:11;;;;;;;;;;;;;;;19.53;52.29;102115.94;4967783;28;1351;-31
2022/03/13 05:51:40;;;;;;;;;;;;;;;19.64;51.69;102124.97;4975606;28;1714;-31
2022/03/13 05:54:07;;;;;;;;;;;;;;;19.60;52.16;102122.63;4974313;28;1469;-31
2022/03/13 05:56:33;;;;;;;;;;;;;;;19.68;51.82;102120.25;4976000;28;1946;-30
2022/03/13 05:59:00;;;;;;;;;;;;;;;20.04;50.99;102114.13;4976237;28;1772;-31
2022/03/13 06:01:26;;;;;;;;;;;;;;;19.63;52.25;102128.59;4978384;28;1927;-32
2022/03/13 06:03:53;;;;;;;;;;;;;;;19.52;53.26;102125.81;4976224;28;1961;-31
2022/03/13 06:06:21;;;;;;;;;;;;;;;19.38;52.95;102129.47;4975222;28;1935;-30
2022/03/13 06:08:48;;;;;;;;;;;;;;;19.24;53.72;102137.59;4975692;28;1572;-31
2022/03/13 06:11:14;;;;;;;;;;;;;;;19.17;54.54;102131.75;4974931;28;1243;-30
2022/03/13 06:13:40;;;;;;;;;;;;;;;19.03;55.12;102119.28;4975323;28;1502;-30
2022/03/13 06:16:07;;;;;;;;;;;;;;;19.01;54.33;102131.94;4975423;28;1986;-31
2022/03/13 06:18:34;;;;;;;;;;;;;;;18.94;54.36;102125.28;4977159;28;1691;-31
2022/03/13 06:21:01;;;;;;;;;;;;;;;18.97;55.10;102138.47;4976220;28;1360;-33
2022/03/13 06:23:29;;;;;;;;;;;;;;;18.92;54.75;102119.16;4975750;28;1154;-31
2022/03/13 06:25:59;;;;;;;;;;;;;;;19.00;54.63;102123.97;4975077;28;2098;-31
2022/03/13 06:28:26;;;;;;;;;;;;;;;18.98;54.85;102120.53;4975823;28;1757;-32
2022/03/13 06:30:55;;;;;;;;;;;;;;;18.93;54.55;102131.59;4975834;28;1654;-30
2022/03/13 06:33:21;;;;;;;;;;;;;;;18.98;55.06;102134.81;4977478;28;1613;-34
2022/03/13 06:35:48;;;;;;;;;;;;;;;18.97;54.86;102119.69;4975745;28;1972;-33
2022/03/13 06:38:14;;;;;;;;;;;;;;;18.95;54.76;102132.34;4975308;28;1800;-33
2022/03/13 06:40:42;;;;;;;;;;;;;;;18.89;54.18;102122.03;4975586;28;1916;-33
2022/03/13 06:43:08;;;;;;;;;;;;;;;18.85;54.25;102134.75;4975929;28;1631;-33
2022/03/13 06:45:35;;;;;;;;;;;;;;;18.81;54.67;102127.03;4976477;28;1725;-33
2022/03/13 06:48:04;;;;;;;;;;;;;;;18.88;54.18;102136.41;4973878;28;1766;-33
2022/03/13 06:50:30;;;;;;;;;;;;;;;18.87;54.51;102129.31;4975343;28;1689;-33
2022/03/13 06:52:57;;;;;;;;;;;;;;;19.04;54.13;102136.25;4975065;28;1633;-33
2022/03/13 06:55:25;;;;;;;;;;;;;;;19.08;54.14;102122.53;4975225;28;1833;-33
2022/03/13 06:57:57;;;;;;;;;;;;;;;19.23;54.29;102130.50;4975063;28;1902;-33
2022/03/13 07:00:38;;;;;;;;;;;;;;;19.10;54.92;102125.09;4977260;28;1892;-34
2022/03/13 07:03:08;;;;;;;;;;;;;;;19.01;52.67;102120.34;4973692;28;1624;-32
2022/03/13 07:05:43;;;;;;;;;;;;;;;18.96;53.53;102128.72;4975622;28;1845;-33
2022/03/13 07:08:22;;;;;;;;;;;;;;;18.86;54.26;102123.09;4974951;28;1832;-33
2022/03/13 07:10:50;;;;;;;;;;;;;;;18.84;53.69;102119.66;4975332;28;1848;-33
2022/03/13 07:16:27;;;;;;;;;;;;;;;18.78;53.11;102135.22;4983448;28;1918;-35
2022/03/13 07:18:54;;;;;;;;;;;;;;;18.71;53.99;102120.53;3935380;28;10000840;-34
2022/03/13 07:21:20;;;;;;;;;;;;;;;18.75;52.88;102128.25;4971032;28;1785;-34
2022/03/13 07:23:49;;;;;;;;;;;;;;;18.69;54.10;102126.84;4971291;28;1811;-35
2022/03/13 07:26:16;;;;;;;;;;;;;;;18.88;55.13;102131.03;4969103;28;1572;-33
2022/03/13 07:28:42;;;;;;;;;;;;;;;18.82;55.57;102123.38;4970485;28;1991;-34
2022/03/13 07:31:09;;;;;;;;;;;;;;;18.86;56.65;102127.56;4973344;28;1902;-33
2022/03/13 07:33:37;;;;;;;;;;;;;;;18.89;56.66;102130.06;4970059;28;1570;-31
2022/03/13 07:36:03;;;;;;;;;;;;;;;18.91;56.12;102119.25;4972033;28;1977;-30
2022/03/13 07:38:30;;;;;;;;;;;;;;;18.72;51.01;102116.88;4976916;28;1948;-30
2022/03/13 07:40:56;;;;;;;;;;;;;;;18.54;53.28;102127.84;4976804;28;1798;-32
2022/03/13 07:43:23;;;;;;;;;;;;;;;18.57;54.19;102130.31;4970938;28;1930;-30
2022/03/13 07:45:49;;;;;;;;;;;;;;;18.54;54.68;102127.84;4973013;28;1858;-31
2022/03/13 07:48:16;;;;;;;;;;;;;;;18.49;54.81;102119.25;4973241;28;1129;-31
2022/03/13 07:50:44;;;;;;;;;;;;;;;18.48;55.17;102133.59;4972446;28;1938;-31
2022/03/13 07:53:10;;;;;;;;;;;;;;;18.45;55.60;102129.28;4974073;28;1648;-31
2022/03/13 07:55:37;;;;;;;;;;;;;;;18.40;55.95;102127.88;4974252;28;1835;-30
2022/03/13 07:58:03;;;;;;;;;;;;;;;18.33;56.31;102130.09;4974147;28;1970;-31
2022/03/13 08:00:29;;;;;;;;;;;;;;;18.31;56.67;102123.97;4974828;28;1019;-30
2022/03/13 08:02:56;;;;;;;;;;;;;;;18.28;57.07;102122.34;4973196;28;1973;-31
2022/03/13 08:05:23;;;;;;;;;;;;;;;18.23;56.97;102121.78;4974474;28;1698;-30
2022/03/13 08:07:52;;;;;;;;;;;;;;;18.20;57.00;102129.13;4974184;28;1651;-30
2022/03/13 08:10:20;;;;;;;;;;;;;;;18.13;57.21;102115.28;4974215;28;1655;-30
2022/03/13 08:12:47;;;;;;;;;;;;;;;18.47;56.45;102123.84;4974016;28;1800;-30
2022/03/13 08:15:13;;;;;;;;;;;;;;;18.66;56.00;102104.75;4974784;28;1006;-30
2022/03/13 08:17:40;;;;;;;;;;;;;;;18.83;55.18;102117.94;4974397;28;2000;-30
2022/03/13 08:20:07;;;;;;;;;;;;;;;19.01;55.04;102129.25;4973845;28;1646;-30
2022/03/13 08:22:33;;;;;;;;;;;;;;;19.12;54.93;102116.94;4974415;28;1623;-30
2022/03/13 08:25:01;;;;;;;;;;;;;;;19.18;54.94;102111.16;4973929;28;1658;-31
2022/03/13 08:27:27;;;;;;;;;;;;;;;19.24;54.80;102114.31;4973954;28;1611;-30
2022/03/13 08:29:54;;;;;;;;;;;;;;;19.26;54.50;102115.06;4974707;28;1079;-30
2022/03/13 08:32:20;;;;;;;;;;;;;;;19.23;54.96;102117.09;4974216;28;1545;-30
2022/03/13 08:34:53;;;;;;;;;;;;;;;19.26;54.71;102119.56;4973630;28;1606;-31
2022/03/13 08:37:20;;;;;;;;;;;;;;;19.22;54.76;102115.38;4973967;28;1910;-33
2022/03/13 08:39:46;;;;;;;;;;;;;;;19.17;54.91;102120.19;4973883;28;1403;-33
2022/03/13 08:42:14;;;;;;;;;;;;;;;19.07;55.30;102123.47;4974006;28;1800;-33
2022/03/13 08:44:41;;;;;;;;;;;;;;;18.96;55.94;102128.72;4974399;28;1182;-33
2022/03/13 08:47:07;;;;;;;;;;;;;;;18.90;55.92;102129.13;4977749;28;1933;-33
2022/03/13 08:49:34;;;;;;;;;;;;;;;18.87;55.86;102118.59;4977681;28;1842;-33
2022/03/13 08:52:00;;;;;;;;;;;;;;;18.85;55.87;102121.38;4977439;28;1653;-33
2022/03/13 08:54:27;;;;;;;;;;;;;;;18.80;55.44;102127.97;4977146;28;1486;-32
2022/03/13 08:56:53;;;;;;;;;;;;;;;18.72;55.76;102120.44;4976209;28;1898;-33
2022/03/13 08:59:21;;;;;;;;;;;;;;;18.63;55.85;102121.88;4977693;28;1136;-33
2022/03/13 09:01:48;;;;;;;;;;;;;;;18.64;55.86;102131.66;4976318;28;2005;-33
2022/03/13 09:04:14;;;;;;;;;;;;;;;18.61;56.01;102131.84;4950927;28;1521;-30
2022/03/13 09:06:43;;;;;;;;;;;;;;;18.53;56.15;102119.91;4946968;28;1904;-30
2022/03/13 09:09:09;;;;;;;;;;;;;;;18.54;55.35;102132.34;4949774;29;1795;-30
2022/03/13 09:11:36;;;;;;;;;;;;;;;18.45;55.49;102120.41;4948003;28;1756;-31
2022/03/13 09:14:04;;;;;;;;;;;;;;;18.43;55.57;102125.00;4949546;28;1004;-30
2022/03/13 09:16:32;;;;;;;;;;;;;;;18.37;56.30;102136.13;4941240;29;1973;-31
2022/03/13 09:18:58;;;;;;;;;;;;;;;18.33;56.18;102121.19;4949593;29;1475;-30
2022/03/13 09:21:25;;;;;;;;;;;;;;;18.31;56.50;102125.78;4948252;29;1424;-30
2022/03/13 09:23:51;;;;;;;;;;;;;;;18.28;56.43;102125.03;4947813;29;1671;-31
2022/03/13 09:26:18;;;;;;;;;;;;;;;18.27;56.05;102125.97;4948201;29;1518;-31
2022/03/13 09:28:44;;;;;;;;;;;;;;;18.23;56.28;102113.75;4949724;29;1755;-30
2022/03/13 09:31:11;;;;;;;;;;;;;;;18.19;56.63;102112.22;4941052;29;1928;-30
2022/03/13 09:33:38;;;;;;;;;;;;;;;18.16;56.78;102120.44;4943832;29;1412;-31
2022/03/13 09:36:05;;;;;;;;;;;;;;;18.10;56.84;102118.16;4946847;29;1666;-31
2022/03/13 09:38:31;;;;;;;;;;;;;;;18.12;56.67;102110.88;4946720;29;1902;-30
2022/03/13 09:40:58;;;;;;;;;;;;;;;18.11;56.71;102100.28;4950107;28;1990;-32
2022/03/13 09:43:24;;;;;;;;;;;;;;;18.12;56.49;102110.88;4948694;29;1791;-31
2022/03/13 09:45:51;;;;;;;;;;;;;;;18.05;57.15;102094.34;4938893;28;1757;-32
2022/03/13 09:48:19;;;;;;;;;;;;;;;18.07;56.01;102097.78;4949187;29;1065;-33
2022/03/13 09:50:47;;;;;;;;;;;;;;;18.06;56.67;102103.22;4949130;29;1843;-35
2022/03/13 09:53:13;;;;;;;;;;;;;;;18.10;56.90;102091.38;4943826;29;1941;-33
2022/03/13 09:55:40;;;;;;;;;;;;;;;18.06;55.95;102084.50;4950716;28;1705;-34
2022/03/13 09:58:08;;;;;;;;;;;;;;;18.03;56.60;102069.50;4946780;28;1910;-34
2022/03/13 10:00:36;;;;;;;;;;;;;;;18.12;56.31;102094.81;4940931;28;1004;-34
2022/03/13 10:03:05;;;;;;;;;;;;;;;18.12;56.66;102086.78;4959160;28;1972;-34
2022/03/13 10:05:41;;;;;;;;;;;;;;;18.11;56.79;102079.72;4976221;28;1609;-33
2022/03/13 10:08:09;;;;;;;;;;;;;;;18.20;56.17;102081.78;4976298;28;1966;-33
2022/03/13 10:10:41;;;;;;;;;;;;;;;18.20;55.92;102088.97;4972192;28;1711;-33
2022/03/13 10:13:08;;;;;;;;;;;;;;;18.23;56.30;102075.41;4976224;28;1796;-33
2022/03/13 10:15:40;;;;;;;;;;;;;;;18.27;56.47;102060.84;4976591;28;1080;-33
2022/03/13 10:18:11;;;;;;;;;;;;;;;18.35;56.13;102081.78;4976609;28;1914;-34
2022/03/13 10:20:39;;;;;;;;;;;;;;;18.43;55.77;102063.41;4975720;28;1726;-33
2022/03/13 10:23:10;;;;;;;;;;;;;;;18.43;55.96;102060.72;4975854;28;1801;-34
2022/03/13 10:25:39;;;;;;;;;;;;;;;18.54;55.46;102076.94;4971933;28;1699;-33
2022/03/13 10:28:12;;;;;;;;;;;;;;;18.48;55.64;102071.97;4976006;28;1407;-33
2022/03/13 10:30:39;;;;;;;;;;;;;;;18.47;55.67;102072.94;4976465;28;1011;-34
2022/03/13 10:33:06;;;;;;;;;;;;;;;18.47;56.06;102078.31;4975134;28;1918;-33
2022/03/13 10:35:32;;;;;;;;;;;;;;;18.44;55.79;102068.66;4975459;28;2212;-33
2022/03/13 10:37:59;;;;;;;;;;;;;;;18.45;55.70;102070.38;4975175;28;1933;-33
2022/03/13 10:40:32;;;;;;;;;;;;;;;18.49;55.77;102071.88;4975580;28;1548;-33
2022/03/13 10:43:09;;;;;;;;;;;;;;;18.45;55.62;102070.38;4975643;28;1652;-34
2022/03/13 10:45:37;;;;;;;;;;;;;;;18.46;55.67;102061.38;4976013;28;1074;-34
2022/03/13 10:48:22;;;;;;;;;;;;;;;18.45;55.75;102061.47;4975241;28;1598;-33
2022/03/13 10:50:50;;;;;;;;;;;;;;;18.43;55.89;102060.72;4975984;28;1928;-33
2022/03/13 10:53:18;;;;;;;;;;;;;;;18.38;55.55;102062.81;4974952;28;1714;-33
2022/03/13 10:55:44;;;;;;;;;;;;;;;18.36;55.59;102059.41;4975383;28;1884;-33
2022/03/13 10:58:18;;;;;;;;;;;;;;;18.31;55.69;102059.69;4972615;28;1919;-33
2022/03/13 11:00:54;;;;;;;;;;;;;;;18.20;54.41;102055.03;4975090;28;1694;-34
2022/03/13 11:03:20;;;;;;;;;;;;;;;18.09;53.55;102050.38;4973765;28;1534;-34
2022/03/13 11:05:49;;;;;;;;;;;;;;;17.90;53.30;102057.84;4974305;28;1060;-34
2022/03/13 11:08:17;;;;;;;;;;;;;;;17.73;52.92;102050.84;4974543;28;1984;-33
2022/03/13 11:10:44;;;;;;;;;;;;;;;17.56;51.24;102057.25;4974177;28;1773;-33
2022/03/13 11:13:15;;;;;;;;;;;;;;;17.58;49.39;102046.44;4972952;28;1773;-34
2022/03/13 11:15:55;;;;;;;;;;;;;;;18.03;49.70;102063.28;4974704;28;1391;-36
2022/03/13 11:18:32;;;;;;;;;;;;;;;18.18;49.91;102046.22;4968323;28;1902;-34
2022/03/13 11:21:04;;;;;;;;;;;;;;;18.15;50.80;102054.47;4980517;28;1962;-33
2022/03/13 11:23:31;;;;;;;;;;;;;;;18.22;51.18;102046.91;4975299;28;1162;-33
2022/03/13 11:25:58;;;;;;;;;;;;;;;18.19;51.34;102044.44;4974590;28;1647;-36
2022/03/13 11:28:29;;;;;;;;;;;;;;;18.25;51.39;102042.22;4974527;28;1922;-35
2022/03/13 11:30:56;;;;;;;;;;;;;;;18.16;52.39;102033.91;4964058;28;1546;-33
2022/03/13 11:33:33;;;;;;;;;;;;;;;18.17;53.03;102031.13;4972430;28;1571;-32
2022/03/13 11:36:18;;;;;;;;;;;;;;;18.25;53.30;102034.19;4974720;28;1575;-34
2022/03/13 11:38:54;;;;;;;;;;;;;;;18.28;53.32;102030.44;4972607;28;1910;-35
2022/03/13 11:41:32;;;;;;;;;;;;;;;18.42;53.99;102042.91;4975157;28;1067;-33
2022/03/13 11:44:03;;;;;;;;;;;;;;;18.30;54.44;102044.56;4974337;28;1783;-34
2022/03/13 11:46:38;;;;;;;;;;;;;;;18.18;54.59;102027.50;4974545;28;1520;-33
2022/03/13 11:49:14;;;;;;;;;;;;;;;18.13;54.32;102037.66;4974540;28;1793;-33
2022/03/13 11:51:43;;;;;;;;;;;;;;;18.13;54.30;102032.31;4973559;28;1522;-34
2022/03/13 11:54:15;;;;;;;;;;;;;;;18.11;55.24;102042.25;4974188;28;1602;-33
2022/03/13 11:56:47;;;;;;;;;;;;;;;18.08;55.20;102037.06;4970119;28;1490;-31
2022/03/13 11:59:16;;;;;;;;;;;;;;;18.06;55.44;102036.31;4973992;28;1907;-31
2022/03/13 12:01:42;;;;;;;;;;;;;;;18.04;54.97;102024.84;4974061;28;1558;-31
2022/03/13 12:04:28;;;;;;;;;;;;;;;18.08;54.78;102024.56;4972828;28;1719;-32
2022/03/13 12:06:56;;;;;;;;;;;;;;;18.19;54.62;102031.91;4966481;28;1673;-33
2022/03/13 12:09:32;;;;;;;;;;;;;;;18.13;54.47;102026.09;4973927;28;1454;-33
2022/03/13 12:12:03;;;;;;;;;;;;;;;18.11;54.73;102028.88;4973680;28;1542;-33
2022/03/13 12:14:48;;;;;;;;;;;;;;;18.07;54.60;102028.19;4974659;28;1150;-33
2022/03/13 12:17:16;;;;;;;;;;;;;;;18.02;55.02;102038.31;4974241;28;1973;-33
2022/03/13 12:19:45;;;;;;;;;;;;;;;17.92;54.08;102029.16;4974470;28;1494;-33
2022/03/13 12:22:14;;;;;;;;;;;;;;;18.00;53.54;102042.06;4977205;28;1565;-33
2022/03/13 12:24:48;;;;;;;;;;;;;;;18.03;53.43;102028.50;4978074;28;1632;-33
2022/03/13 12:27:15;;;;;;;;;;;;;;;17.97;55.24;102028.91;4977522;28;1693;-33
2022/03/13 12:29:44;;;;;;;;;;;;;;;18.02;54.33;102032.97;4978183;28;1634;-34
2022/03/13 12:32:13;;;;;;;;;;;;;;;18.11;55.74;102028.00;4978184;28;1569;-33
2022/03/13 12:34:45;;;;;;;;;;;;;;;18.05;55.85;102032.78;4978151;28;1671;-33
2022/03/13 12:37:12;;;;;;;;;;;;;;;18.01;55.84;102027.75;4977738;28;1638;-34
2022/03/13 12:39:49;;;;;;;;;;;;;;;18.01;56.44;102027.75;4978013;28;1973;-33
2022/03/13 12:42:24;;;;;;;;;;;;;;;17.99;57.25;102016.28;4977731;28;1825;-33
2022/03/13 12:45:06;;;;;;;;;;;;;;;18.00;56.63;102020.66;4969654;28;1080;-34
2022/03/13 12:47:38;;;;;;;;;;;;;;;18.11;56.84;102038.72;4977783;28;1744;-34
2022/03/13 12:50:21;;;;;;;;;;;;;;;18.15;56.74;102035.72;4977901;28;1828;-33
2022/03/13 12:52:56;;;;;;;;;;;;;;;18.16;56.86;102037.44;4977071;28;1572;-33
2022/03/13 12:55:23;;;;;;;;;;;;;;;18.23;56.28;102033.41;4974794;28;1654;-33
2022/03/13 12:57:53;;;;;;;;;;;;;;;18.12;57.50;102046.63;4976815;28;1898;-33